sensor_id;sensor_type;location;lat;lon;timestamp;pressure;altitude;pressure_sealevel;temperature;humidity
32735;BME280;19112;51.076;3.706;2023-01-29T00:00:17;102420.00;;;0.50;68.79
32735;BME280;19112;51.076;3.706;2023-01-29T00:02:43;102866.91;;;3.06;69.07
32735;BME280;19112;51.076;3.706;2023-01-29T00:05:09;103022.88;;;3.99;69.04
32735;BME280;19112;51.076;3.706;2023-01-29T00:07:35;103043.50;;;4.06;69.15
32735;BME280;19112;51.076;3.706;2023-01-29T00:10:01;102990.69;;;3.88;69.01
32735;BME280;19112;51.076;3.706;2023-01-29T00:12:26;102902.66;;;3.36;68.25
32735;BME280;19112;51.076;3.706;2023-01-29T00:14:52;102939.94;;;3.64;68.47
32735;BME280;19112;51.076;3.706;2023-01-29T00:17:19;103009.84;;;4.07;68.62
32735;BME280;19112;51.076;3.706;2023-01-29T00:19:45;103006.91;;;4.13;68.69
32735;BME280;19112;51.076;3.706;2023-01-29T00:22:11;103012.56;;;4.17;68.69
32735;BME280;19112;51.076;3.706;2023-01-29T00:24:37;102742.44;;;2.61;68.44
32735;BME280;19112;51.076;3.706;2023-01-29T00:27:03;102937.28;;;3.73;68.33
32735;BME280;19112;51.076;3.706;2023-01-29T00:29:29;102889.75;;;3.46;68.29
32735;BME280;19112;51.076;3.706;2023-01-29T00:31:54;103003.97;;;4.18;68.83
32735;BME280;19112;51.076;3.706;2023-01-29T00:34:20;102481.25;;;0.69;67.77
32735;BME280;19112;51.076;3.706;2023-01-29T00:36:47;102369.19;;;0.77;67.66
32735;BME280;19112;51.076;3.706;2023-01-29T00:39:13;102800.69;;;3.01;68.29
32735;BME280;19112;51.076;3.706;2023-01-29T00:41:39;102994.72;;;4.03;68.38
32735;BME280;19112;51.076;3.706;2023-01-29T00:44:23;102906.75;;;3.42;68.19
32735;BME280;19112;51.076;3.706;2023-01-29T00:47:07;102723.88;;;2.39;68.32
32735;BME280;19112;51.076;3.706;2023-01-29T00:49:53;102913.97;;;3.64;68.53
32735;BME280;19112;51.076;3.706;2023-01-29T00:52:19;102831.47;;;3.15;68.58
32735;BME280;19112;51.076;3.706;2023-01-29T00:54:48;102659.38;;;2.15;68.39
32735;BME280;19112;51.076;3.706;2023-01-29T00:57:14;102976.88;;;3.98;68.28
32735;BME280;19112;51.076;3.706;2023-01-29T00:59:40;102978.38;;;4.04;68.75
32735;BME280;19112;51.076;3.706;2023-01-29T01:02:06;102860.34;;;3.37;68.03
32735;BME280;19112;51.076;3.706;2023-01-29T01:04:50;102982.47;;;4.11;68.34
32735;BME280;19112;51.076;3.706;2023-01-29T01:07:16;102572.00;;;1.86;68.00
32735;BME280;19112;51.076;3.706;2023-01-29T01:09:41;102804.97;;;3.28;68.47
32735;BME280;19112;51.076;3.706;2023-01-29T01:12:27;102911.81;;;3.87;68.41
32735;BME280;19112;51.076;3.706;2023-01-29T01:14:53;102963.50;;;4.12;68.26
32735;BME280;19112;51.076;3.706;2023-01-29T01:17:19;102971.22;;;4.20;68.33
32735;BME280;19112;51.076;3.706;2023-01-29T01:19:48;102908.72;;;4.00;68.06
32735;BME280;19112;51.076;3.706;2023-01-29T01:22:13;102933.22;;;4.12;68.04
32735;BME280;19112;51.076;3.706;2023-01-29T01:24:39;102887.19;;;3.92;68.06
32735;BME280;19112;51.076;3.706;2023-01-29T01:27:06;102959.03;;;4.38;68.26
32735;BME280;19112;51.076;3.706;2023-01-29T01:29:32;102827.91;;;3.70;67.69
32735;BME280;19112;51.076;3.706;2023-01-29T01:31:57;102942.69;;;4.31;68.07
32735;BME280;19112;51.076;3.706;2023-01-29T01:34:24;102374.66;;;1.25;67.65
32735;BME280;19112;51.076;3.706;2023-01-29T01:36:52;102742.81;;;3.29;67.60
32735;BME280;19112;51.076;3.706;2023-01-29T01:39:18;102959.53;;;4.53;67.59
32735;BME280;19112;51.076;3.706;2023-01-29T01:41:44;102857.78;;;4.02;67.87
32735;BME280;19112;51.076;3.706;2023-01-29T01:44:53;102852.38;;;3.90;67.48
32735;BME280;19112;51.076;3.706;2023-01-29T01:47:37;102607.09;;;2.46;67.01
32735;BME280;19112;51.076;3.706;2023-01-29T01:50:13;102768.25;;;3.42;67.52
32735;BME280;19112;51.076;3.706;2023-01-29T01:52:47;102815.34;;;3.74;67.42
32735;BME280;19112;51.076;3.706;2023-01-29T01:55:18;102921.91;;;4.31;67.07
32735;BME280;19112;51.076;3.706;2023-01-29T01:57:48;102968.16;;;4.62;66.99
32735;BME280;19112;51.076;3.706;2023-01-29T02:00:18;102947.34;;;4.25;67.27
32735;BME280;19112;51.076;3.706;2023-01-29T02:02:45;102982.78;;;4.70;67.27
32735;BME280;19112;51.076;3.706;2023-01-29T02:05:33;102899.38;;;4.21;67.06
32735;BME280;19112;51.076;3.706;2023-01-29T02:08:30;102984.97;;;4.85;66.90
32735;BME280;19112;51.076;3.706;2023-01-29T02:11:16;102987.16;;;4.80;66.62
32735;BME280;19112;51.076;3.706;2023-01-29T02:13:42;102947.28;;;4.52;66.45
32735;BME280;19112;51.076;3.706;2023-01-29T02:16:08;102851.47;;;3.90;66.89
32735;BME280;19112;51.076;3.706;2023-01-29T02:18:34;102963.16;;;4.55;66.34
32735;BME280;19112;51.076;3.706;2023-01-29T02:21:24;102955.38;;;4.55;66.42
32735;BME280;19112;51.076;3.706;2023-01-29T02:24:51;102996.19;;;4.94;66.91
32735;BME280;19112;51.076;3.706;2023-01-29T02:27:18;102988.25;;;4.92;66.15
32735;BME280;19112;51.076;3.706;2023-01-29T02:35:16;102889.91;;;4.51;66.25
32735;BME280;19112;51.076;3.706;2023-01-29T02:38:12;102987.03;;;5.08;66.00
32735;BME280;19112;51.076;3.706;2023-01-29T02:41:03;102616.13;;;3.06;66.04
32735;BME280;19112;51.076;3.706;2023-01-29T02:43:53;102889.19;;;4.62;66.06
32735;BME280;19112;51.076;3.706;2023-01-29T02:46:51;102977.44;;;5.27;66.17
32735;BME280;19112;51.076;3.706;2023-01-29T02:49:38;102984.88;;;5.22;65.66
32735;BME280;19112;51.076;3.706;2023-01-29T02:52:25;102835.97;;;4.48;66.07
32735;BME280;19112;51.076;3.706;2023-01-29T02:55:03;102914.22;;;4.99;65.72
32735;BME280;19112;51.076;3.706;2023-01-29T02:57:36;102943.38;;;5.05;65.66
32735;BME280;19112;51.076;3.706;2023-01-29T03:00:09;102978.41;;;5.28;65.49
32735;BME280;19112;51.076;3.706;2023-01-29T03:08:32;102928.78;;;4.97;65.46
32735;BME280;19112;51.076;3.706;2023-01-29T03:11:09;102791.06;;;4.11;65.28
32735;BME280;19112;51.076;3.706;2023-01-29T03:14:01;102973.94;;;5.26;65.75
32735;BME280;19112;51.076;3.706;2023-01-29T03:16:48;102975.41;;;5.33;65.67
32735;BME280;19112;51.076;3.706;2023-01-29T03:19:34;102672.06;;;3.70;65.20
32735;BME280;19112;51.076;3.706;2023-01-29T03:22:04;102923.25;;;5.13;65.36
32735;BME280;19112;51.076;3.706;2023-01-29T03:24:56;102783.25;;;4.40;65.16
32735;BME280;19112;51.076;3.706;2023-01-29T03:30:33;102943.78;;;5.39;64.98
32735;BME280;19112;51.076;3.706;2023-01-29T03:33:20;102898.13;;;5.13;65.22
32735;BME280;19112;51.076;3.706;2023-01-29T03:36:00;102824.50;;;4.75;64.69
32735;BME280;19112;51.076;3.706;2023-01-29T03:38:31;102763.22;;;4.39;64.79
32735;BME280;19112;51.076;3.706;2023-01-29T03:41:22;102939.00;;;5.43;64.73
32735;BME280;19112;51.076;3.706;2023-01-29T03:44:24;102936.91;;;5.49;64.89
32735;BME280;19112;51.076;3.706;2023-01-29T03:47:26;102888.25;;;5.19;64.43
32735;BME280;19112;51.076;3.706;2023-01-29T03:50:05;102936.91;;;5.49;64.90
32735;BME280;19112;51.076;3.706;2023-01-29T03:53:05;102871.41;;;4.95;64.95
32735;BME280;19112;51.076;3.706;2023-01-29T03:55:42;102844.94;;;4.81;64.75
32735;BME280;19112;51.076;3.706;2023-01-29T03:58:41;102943.81;;;5.49;64.49
32735;BME280;19112;51.076;3.706;2023-01-29T04:02:04;102874.56;;;5.02;64.63
32735;BME280;19112;51.076;3.706;2023-01-29T04:04:23;102898.75;;;5.11;64.86
32735;BME280;19112;51.076;3.706;2023-01-29T04:06:54;102907.13;;;5.27;64.41
32735;BME280;19112;51.076;3.706;2023-01-29T04:09:43;102940.44;;;5.50;64.40
32735;BME280;19112;51.076;3.706;2023-01-29T04:12:13;102731.06;;;4.29;64.26
32735;BME280;19112;51.076;3.706;2023-01-29T04:14:41;102689.53;;;4.10;64.50
32735;BME280;19112;51.076;3.706;2023-01-29T04:17:24;102931.94;;;5.52;64.65
32735;BME280;19112;51.076;3.706;2023-01-29T04:19:55;102826.88;;;4.92;64.58
32735;BME280;19112;51.076;3.706;2023-01-29T04:22:30;102853.56;;;5.00;64.62
32735;BME280;19112;51.076;3.706;2023-01-29T04:24:58;102741.94;;;4.43;64.18
32735;BME280;19112;51.076;3.706;2023-01-29T04:28:12;102934.06;;;5.57;64.49
32735;BME280;19112;51.076;3.706;2023-01-29T04:39:24;102929.78;;;5.67;64.14
32735;BME280;19112;51.076;3.706;2023-01-29T04:42:30;102869.41;;;5.22;63.82
32735;BME280;19112;51.076;3.706;2023-01-29T04:47:51;102921.03;;;5.67;64.12
32735;BME280;19112;51.076;3.706;2023-01-29T04:50:48;102685.34;;;4.41;63.65
32735;BME280;19112;51.076;3.706;2023-01-29T04:56:56;102819.00;;;5.21;63.83
32735;BME280;19112;51.076;3.706;2023-01-29T04:59:32;102923.66;;;5.67;63.88
32735;BME280;19112;51.076;3.706;2023-01-29T05:02:01;102731.22;;;4.69;63.75
32735;BME280;19112;51.076;3.706;2023-01-29T05:04:30;102890.78;;;5.59;64.02
32735;BME280;19112;51.076;3.706;2023-01-29T05:07:03;102437.59;;;3.02;63.94
32735;BME280;19112;51.076;3.706;2023-01-29T05:09:31;102884.94;;;5.61;64.00
32735;BME280;19112;51.076;3.706;2023-01-29T05:12:00;102937.06;;;5.61;64.31
32735;BME280;19112;51.076;3.706;2023-01-29T05:14:27;102518.41;;;3.55;63.63
32735;BME280;19112;51.076;3.706;2023-01-29T05:16:56;102851.66;;;5.08;63.92
32735;BME280;19112;51.076;3.706;2023-01-29T05:19:23;102716.59;;;4.61;64.21
32735;BME280;19112;51.076;3.706;2023-01-29T05:21:49;102776.78;;;5.05;64.33
32735;BME280;19112;51.076;3.706;2023-01-29T05:24:20;102629.91;;;4.11;64.37
32735;BME280;19112;51.076;3.706;2023-01-29T05:26:50;102766.38;;;4.85;64.29
32735;BME280;19112;51.076;3.706;2023-01-29T05:29:35;102556.53;;;3.75;64.48
32735;BME280;19112;51.076;3.706;2023-01-29T05:32:01;102876.47;;;5.53;64.78
32735;BME280;19112;51.076;3.706;2023-01-29T05:34:28;102796.84;;;5.16;64.54
32735;BME280;19112;51.076;3.706;2023-01-29T05:36:54;102775.34;;;4.98;64.55
32735;BME280;19112;51.076;3.706;2023-01-29T05:39:20;102877.63;;;5.57;64.60
32735;BME280;19112;51.076;3.706;2023-01-29T05:41:46;102657.28;;;4.37;64.42
32735;BME280;19112;51.076;3.706;2023-01-29T05:44:12;102654.13;;;4.31;64.11
32735;BME280;19112;51.076;3.706;2023-01-29T05:46:38;102884.03;;;5.50;64.39
32735;BME280;19112;51.076;3.706;2023-01-29T05:49:04;102516.47;;;3.52;64.15
32735;BME280;19112;51.076;3.706;2023-01-29T05:51:30;102541.19;;;3.78;64.27
32735;BME280;19112;51.076;3.706;2023-01-29T05:53:56;102594.47;;;4.22;64.02
32735;BME280;19112;51.076;3.706;2023-01-29T05:56:22;102791.53;;;5.25;64.15
32735;BME280;19112;51.076;3.706;2023-01-29T05:58:49;102558.09;;;3.83;64.02
32735;BME280;19112;51.076;3.706;2023-01-29T06:01:25;102182.22;;;1.90;63.82
32735;BME280;19112;51.076;3.706;2023-01-29T06:03:51;102760.78;;;5.00;64.07
32735;BME280;19112;51.076;3.706;2023-01-29T06:06:17;102743.31;;;4.89;64.45
32735;BME280;19112;51.076;3.706;2023-01-29T06:08:42;102843.53;;;5.44;64.67
32735;BME280;19112;51.076;3.706;2023-01-29T06:11:11;102834.13;;;5.46;64.60
32735;BME280;19112;51.076;3.706;2023-01-29T06:13:37;102807.03;;;5.34;64.58
32735;BME280;19112;51.076;3.706;2023-01-29T06:16:08;102687.09;;;4.71;64.86
32735;BME280;19112;51.076;3.706;2023-01-29T06:18:35;102766.66;;;5.18;64.55
32735;BME280;19112;51.076;3.706;2023-01-29T06:21:03;102416.44;;;3.27;64.30
32735;BME280;19112;51.076;3.706;2023-01-29T06:23:30;102653.41;;;4.62;64.55
32735;BME280;19112;51.076;3.706;2023-01-29T06:26:01;102824.50;;;5.65;64.37
32735;BME280;19112;51.076;3.706;2023-01-29T06:28:27;102814.19;;;5.36;64.18
32735;BME280;19112;51.076;3.706;2023-01-29T06:31:01;102662.53;;;4.78;64.07
32735;BME280;19112;51.076;3.706;2023-01-29T06:33:27;102506.91;;;3.82;64.50
32735;BME280;19112;51.076;3.706;2023-01-29T06:36:01;102655.22;;;4.63;64.21
32735;BME280;19112;51.076;3.706;2023-01-29T06:38:28;102569.59;;;4.26;64.16
32735;BME280;19112;51.076;3.706;2023-01-29T06:40:54;102567.78;;;4.25;64.14
32735;BME280;19112;51.076;3.706;2023-01-29T06:43:20;102656.16;;;4.74;64.14
32735;BME280;19112;51.076;3.706;2023-01-29T06:45:55;102812.25;;;5.64;63.79
32735;BME280;19112;51.076;3.706;2023-01-29T06:48:23;102661.50;;;4.86;64.02
32735;BME280;19112;51.076;3.706;2023-01-29T06:50:49;102685.44;;;5.02;63.89
32735;BME280;19112;51.076;3.706;2023-01-29T06:53:16;102816.81;;;5.87;63.41
32735;BME280;19112;51.076;3.706;2023-01-29T06:55:50;102798.97;;;5.82;63.66
32735;BME280;19112;51.076;3.706;2023-01-29T06:58:16;102827.34;;;5.89;63.79
32735;BME280;19112;51.076;3.706;2023-01-29T07:00:42;102825.41;;;5.86;63.75
32735;BME280;19112;51.076;3.706;2023-01-29T07:03:09;102790.75;;;5.67;63.67
32735;BME280;19112;51.076;3.706;2023-01-29T07:05:36;102749.59;;;5.42;63.40
32735;BME280;19112;51.076;3.706;2023-01-29T07:08:02;102784.38;;;5.63;63.37
32735;BME280;19112;51.076;3.706;2023-01-29T07:10:28;102674.63;;;5.08;63.58
32735;BME280;19112;51.076;3.706;2023-01-29T07:12:54;102640.69;;;4.76;63.37
32735;BME280;19112;51.076;3.706;2023-01-29T07:15:20;102585.53;;;4.49;63.00
32735;BME280;19112;51.076;3.706;2023-01-29T07:18:00;102840.13;;;6.06;63.18
32735;BME280;19112;51.076;3.706;2023-01-29T07:20:28;102819.94;;;5.73;63.48
32735;BME280;19112;51.076;3.706;2023-01-29T07:22:56;102143.03;;;2.05;63.21
32735;BME280;19112;51.076;3.706;2023-01-29T07:25:23;102416.91;;;3.52;63.66
32735;BME280;19112;51.076;3.706;2023-01-29T07:27:49;102614.16;;;4.69;63.50
32735;BME280;19112;51.076;3.706;2023-01-29T07:30:16;102610.47;;;4.67;63.41
32735;BME280;19112;51.076;3.706;2023-01-29T07:32:42;102683.59;;;5.11;63.72
32735;BME280;19112;51.076;3.706;2023-01-29T07:35:09;102764.44;;;5.53;63.39
32735;BME280;19112;51.076;3.706;2023-01-29T07:37:35;102817.19;;;5.82;63.29
32735;BME280;19112;51.076;3.706;2023-01-29T07:40:00;102816.53;;;5.84;63.23
32735;BME280;19112;51.076;3.706;2023-01-29T07:42:26;102393.66;;;3.53;63.59
32735;BME280;19112;51.076;3.706;2023-01-29T07:44:52;102835.19;;;5.99;63.65
32735;BME280;19112;51.076;3.706;2023-01-29T07:47:19;102869.88;;;6.08;63.48
32735;BME280;19112;51.076;3.706;2023-01-29T07:49:44;102762.09;;;5.57;63.64
32735;BME280;19112;51.076;3.706;2023-01-29T07:52:10;102642.22;;;4.94;63.38
32735;BME280;19112;51.076;3.706;2023-01-29T07:54:36;102844.69;;;6.09;63.40
32735;BME280;19112;51.076;3.706;2023-01-29T07:57:03;102659.13;;;5.09;63.42
32735;BME280;19112;51.076;3.706;2023-01-29T07:59:28;102304.69;;;3.15;63.04
32735;BME280;19112;51.076;3.706;2023-01-29T08:01:54;102839.06;;;6.24;63.11
32735;BME280;19112;51.076;3.706;2023-01-29T08:04:20;102599.56;;;4.82;63.30
32735;BME280;19112;51.076;3.706;2023-01-29T08:06:46;102830.72;;;6.18;63.34
32735;BME280;19112;51.076;3.706;2023-01-29T08:09:12;102236.53;;;2.87;62.97
32735;BME280;19112;51.076;3.706;2023-01-29T08:11:37;102595.78;;;4.88;63.07
32735;BME280;19112;51.076;3.706;2023-01-29T08:14:03;102345.84;;;3.51;62.94
32735;BME280;19112;51.076;3.706;2023-01-29T08:16:29;102699.19;;;5.52;63.05
32735;BME280;19112;51.076;3.706;2023-01-29T08:18:55;102830.66;;;6.39;62.88
32735;BME280;19112;51.076;3.706;2023-01-29T08:21:20;102505.41;;;4.65;62.76
32735;BME280;19112;51.076;3.706;2023-01-29T08:23:46;102565.84;;;4.93;62.63
32735;BME280;19112;51.076;3.706;2023-01-29T08:26:12;102517.09;;;4.70;62.48
32735;BME280;19112;51.076;3.706;2023-01-29T08:28:38;102834.13;;;6.49;62.30
32735;BME280;19112;51.076;3.706;2023-01-29T08:31:12;102832.50;;;6.40;62.50
32735;BME280;19112;51.076;3.706;2023-01-29T08:33:38;102691.59;;;5.75;62.20
32735;BME280;19112;51.076;3.706;2023-01-29T08:36:04;102452.00;;;4.38;62.49
32735;BME280;19112;51.076;3.706;2023-01-29T08:38:29;102228.28;;;3.22;62.32
32735;BME280;19112;51.076;3.706;2023-01-29T08:40:55;102568.56;;;5.05;62.23
32735;BME280;19112;51.076;3.706;2023-01-29T08:43:21;102598.72;;;5.23;62.09
32735;BME280;19112;51.076;3.706;2023-01-29T08:45:47;102661.13;;;5.64;61.98
32735;BME280;19112;51.076;3.706;2023-01-29T08:48:12;102663.31;;;5.70;61.60
32735;BME280;19112;51.076;3.706;2023-01-29T08:50:38;102761.84;;;6.26;61.88
32735;BME280;19112;51.076;3.706;2023-01-29T08:53:06;102557.63;;;5.09;61.76
32735;BME280;19112;51.076;3.706;2023-01-29T08:55:36;102755.22;;;6.20;61.66
32735;BME280;19112;51.076;3.706;2023-01-29T08:58:08;102582.28;;;5.35;61.76
32735;BME280;19112;51.076;3.706;2023-01-29T09:00:34;102824.00;;;6.74;61.74
32735;BME280;19112;51.076;3.706;2023-01-29T09:03:00;102643.63;;;5.73;61.52
32735;BME280;19112;51.076;3.706;2023-01-29T09:05:27;102834.91;;;6.80;61.57
32735;BME280;19112;51.076;3.706;2023-01-29T09:07:55;102832.56;;;6.83;61.32
32735;BME280;19112;51.076;3.706;2023-01-29T09:10:21;102766.91;;;6.35;61.29
32735;BME280;19112;51.076;3.706;2023-01-29T09:12:46;102519.38;;;5.08;61.09
32735;BME280;19112;51.076;3.706;2023-01-29T09:15:12;102759.03;;;6.45;61.55
32735;BME280;19112;51.076;3.706;2023-01-29T09:17:38;102822.66;;;6.79;61.36
32735;BME280;19112;51.076;3.706;2023-01-29T09:20:06;102719.09;;;6.24;61.07
32735;BME280;19112;51.076;3.706;2023-01-29T09:22:32;102820.06;;;6.79;60.85
32735;BME280;19112;51.076;3.706;2023-01-29T09:24:58;102484.38;;;4.94;60.87
32735;BME280;19112;51.076;3.706;2023-01-29T09:27:24;102516.47;;;5.15;60.81
32735;BME280;19112;51.076;3.706;2023-01-29T09:29:50;102513.81;;;5.25;60.63
32735;BME280;19112;51.076;3.706;2023-01-29T09:32:15;102614.75;;;5.70;60.68
32735;BME280;19112;51.076;3.706;2023-01-29T09:34:41;102809.97;;;6.84;60.98
32735;BME280;19112;51.076;3.706;2023-01-29T09:37:07;102809.44;;;6.88;61.07
32735;BME280;19112;51.076;3.706;2023-01-29T09:39:33;102546.59;;;5.44;61.02
32735;BME280;19112;51.076;3.706;2023-01-29T09:47:34;102775.63;;;6.68;61.03
32735;BME280;19112;51.076;3.706;2023-01-29T09:50:10;102745.38;;;6.60;61.21
32735;BME280;19112;51.076;3.706;2023-01-29T09:52:51;102661.22;;;6.18;61.02
32735;BME280;19112;51.076;3.706;2023-01-29T09:55:38;102788.50;;;6.98;60.81
32735;BME280;19112;51.076;3.706;2023-01-29T09:58:33;102763.56;;;6.92;60.82
32735;BME280;19112;51.076;3.706;2023-01-29T10:01:44;102815.81;;;7.35;60.71
32735;BME280;19112;51.076;3.706;2023-01-29T10:04:35;102811.16;;;7.43;59.79
32735;BME280;19112;51.076;3.706;2023-01-29T10:10:43;102816.84;;;7.49;59.85
32735;BME280;19112;51.076;3.706;2023-01-29T10:13:26;102816.78;;;7.59;59.74
32735;BME280;19112;51.076;3.706;2023-01-29T10:16:28;102811.47;;;7.70;59.71
32735;BME280;19112;51.076;3.706;2023-01-29T10:19:43;102816.13;;;7.74;59.48
32735;BME280;19112;51.076;3.706;2023-01-29T10:25:10;102487.44;;;5.97;58.88
32735;BME280;19112;51.076;3.706;2023-01-29T10:27:41;102753.47;;;7.52;58.70
32735;BME280;19112;51.076;3.706;2023-01-29T10:30:31;102658.41;;;7.04;58.29
32735;BME280;19112;51.076;3.706;2023-01-29T10:33:02;102831.41;;;8.03;58.63
32735;BME280;19112;51.076;3.706;2023-01-29T10:35:50;102619.44;;;7.07;58.68
32735;BME280;19112;51.076;3.706;2023-01-29T10:38:33;102805.69;;;8.09;58.43
32735;BME280;19112;51.076;3.706;2023-01-29T10:53:41;102784.88;;;8.69;57.27
32735;BME280;19112;51.076;3.706;2023-01-29T10:56:50;102772.22;;;8.75;56.79
32735;BME280;19112;51.076;3.706;2023-01-29T10:59:33;102769.03;;;8.79;56.61
32735;BME280;19112;51.076;3.706;2023-01-29T11:02:17;102717.13;;;8.62;56.90
32735;BME280;19112;51.076;3.706;2023-01-29T11:04:44;102594.19;;;8.02;56.08
32735;BME280;19112;51.076;3.706;2023-01-29T11:07:11;102693.28;;;8.82;55.66
32735;BME280;19112;51.076;3.706;2023-01-29T11:10:07;102700.13;;;8.80;55.56
32735;BME280;19112;51.076;3.706;2023-01-29T11:12:36;102605.94;;;8.32;55.41
32735;BME280;19112;51.076;3.706;2023-01-29T11:15:22;102543.47;;;8.00;55.39
32735;BME280;19112;51.076;3.706;2023-01-29T11:18:09;102641.81;;;8.58;55.21
32735;BME280;19112;51.076;3.706;2023-01-29T11:20:39;102629.13;;;8.39;55.57
32735;BME280;19112;51.076;3.706;2023-01-29T11:23:28;102694.31;;;8.84;55.84
32735;BME280;19112;51.076;3.706;2023-01-29T11:25:56;102700.47;;;8.73;55.33
32735;BME280;19112;51.076;3.706;2023-01-29T11:28:39;102692.75;;;8.75;55.61
32735;BME280;19112;51.076;3.706;2023-01-29T11:31:35;102554.88;;;7.88;55.80
32735;BME280;19112;51.076;3.706;2023-01-29T11:34:21;102679.97;;;8.54;55.15
32735;BME280;19112;51.076;3.706;2023-01-29T11:37:02;102447.38;;;7.47;55.15
32735;BME280;19112;51.076;3.706;2023-01-29T11:39:30;102364.44;;;7.08;54.52
32735;BME280;19112;51.076;3.706;2023-01-29T11:42:02;102478.97;;;7.75;54.35
32735;BME280;19112;51.076;3.706;2023-01-29T11:44:33;102691.31;;;9.05;54.51
32735;BME280;19112;51.076;3.706;2023-01-29T11:47:26;102474.41;;;7.84;54.54
32735;BME280;19112;51.076;3.706;2023-01-29T11:50:00;102658.72;;;8.88;54.43
32735;BME280;19112;51.076;3.706;2023-01-29T11:52:39;102625.97;;;8.81;54.02
32735;BME280;19112;51.076;3.706;2023-01-29T11:55:33;102690.25;;;9.14;53.86
32735;BME280;19112;51.076;3.706;2023-01-29T11:58:19;102408.84;;;7.56;53.71
32735;BME280;19112;51.076;3.706;2023-01-29T12:00:50;102298.63;;;7.00;53.61
32735;BME280;19112;51.076;3.706;2023-01-29T12:03:32;102593.75;;;8.82;54.00
32735;BME280;19112;51.076;3.706;2023-01-29T12:06:13;102665.59;;;9.24;53.50
32735;BME280;19112;51.076;3.706;2023-01-29T12:08:41;102568.59;;;8.84;53.48
32735;BME280;19112;51.076;3.706;2023-01-29T12:11:22;102066.94;;;6.10;53.04
32735;BME280;19112;51.076;3.706;2023-01-29T12:13:54;102440.13;;;8.18;53.57
32735;BME280;19112;51.076;3.706;2023-01-29T12:16:38;102653.25;;;9.48;53.11
32735;BME280;19112;51.076;3.706;2023-01-29T12:21:57;102301.38;;;7.40;53.22
32735;BME280;19112;51.076;3.706;2023-01-29T12:24:34;102632.56;;;9.39;53.37
32735;BME280;19112;51.076;3.706;2023-01-29T12:27:27;102599.13;;;9.10;53.30
32735;BME280;19112;51.076;3.706;2023-01-29T12:30:16;102623.38;;;9.33;53.16
32735;BME280;19112;51.076;3.706;2023-01-29T12:35:23;102579.47;;;8.90;54.01
32735;BME280;19112;51.076;3.706;2023-01-29T12:40:45;102581.41;;;9.06;54.12
32735;BME280;19112;51.076;3.706;2023-01-29T12:43:26;102552.06;;;8.99;54.28
32735;BME280;19112;51.076;3.706;2023-01-29T12:45:57;102466.94;;;8.65;53.91
32735;BME280;19112;51.076;3.706;2023-01-29T12:48:31;102472.38;;;8.69;53.83
32735;BME280;19112;51.076;3.706;2023-01-29T12:54:02;102480.44;;;8.85;54.02
32735;BME280;19112;51.076;3.706;2023-01-29T12:56:52;102329.44;;;8.06;53.31
32735;BME280;19112;51.076;3.706;2023-01-29T12:59:36;102350.78;;;8.12;54.00
32735;BME280;19112;51.076;3.706;2023-01-29T13:05:02;102483.16;;;9.13;53.63
32735;BME280;19112;51.076;3.706;2023-01-29T13:07:39;102443.97;;;8.88;53.54
32735;BME280;19112;51.076;3.706;2023-01-29T13:10:13;102070.03;;;6.79;53.38
32735;BME280;19112;51.076;3.706;2023-01-29T13:12:53;102438.75;;;9.01;53.64
32735;BME280;19112;51.076;3.706;2023-01-29T13:15:35;102380.91;;;8.72;53.35
32735;BME280;19112;51.076;3.706;2023-01-29T13:18:49;102524.13;;;9.65;53.57
32735;BME280;19112;51.076;3.706;2023-01-29T13:21:26;102519.28;;;9.71;53.47
32735;BME280;19112;51.076;3.706;2023-01-29T13:24:02;102519.88;;;9.67;53.55
32735;BME280;19112;51.076;3.706;2023-01-29T13:26:29;102032.53;;;7.03;53.24
32735;BME280;19112;51.076;3.706;2023-01-29T13:28:57;102394.78;;;9.10;53.51
32735;BME280;19112;51.076;3.706;2023-01-29T13:31:35;102503.00;;;9.77;53.32
32735;BME280;19112;51.076;3.706;2023-01-29T13:36:29;102361.69;;;8.84;53.24
32735;BME280;19112;51.076;3.706;2023-01-29T13:39:06;102411.19;;;9.21;53.45
32735;BME280;19112;51.076;3.706;2023-01-29T13:41:40;102260.22;;;8.40;53.14
32735;BME280;19112;51.076;3.706;2023-01-29T13:44:48;102432.81;;;9.32;53.11
32735;BME280;19112;51.076;3.706;2023-01-29T13:47:33;102468.84;;;9.62;53.16
32735;BME280;19112;51.076;3.706;2023-01-29T13:50:16;102287.78;;;8.62;53.41
32735;BME280;19112;51.076;3.706;2023-01-29T13:52:55;102504.75;;;9.77;53.58
32735;BME280;19112;51.076;3.706;2023-01-29T13:55:42;102303.78;;;8.80;53.31
32735;BME280;19112;51.076;3.706;2023-01-29T14:00:59;102464.13;;;9.85;53.17
32735;BME280;19112;51.076;3.706;2023-01-29T14:05:58;102323.84;;;9.07;53.24
32735;BME280;19112;51.076;3.706;2023-01-29T14:13:45;102475.50;;;9.70;53.39
32735;BME280;19112;51.076;3.706;2023-01-29T14:18:56;102397.13;;;9.06;53.80
32735;BME280;19112;51.076;3.706;2023-01-29T14:21:26;102350.63;;;8.75;53.94
32735;BME280;19112;51.076;3.706;2023-01-29T14:24:18;102437.13;;;9.16;54.25
32735;BME280;19112;51.076;3.706;2023-01-29T14:26:48;102343.59;;;8.48;54.90
32735;BME280;19112;51.076;3.706;2023-01-29T14:29:29;102037.00;;;6.79;55.03
32735;BME280;19112;51.076;3.706;2023-01-29T14:32:20;102300.47;;;8.29;54.84
32735;BME280;19112;51.076;3.706;2023-01-29T14:35:16;102365.03;;;8.69;55.64
32735;BME280;19112;51.076;3.706;2023-01-29T14:37:44;102253.59;;;8.06;55.66
32735;BME280;19112;51.076;3.706;2023-01-29T14:40:31;102123.47;;;7.35;55.59
32735;BME280;19112;51.076;3.706;2023-01-29T14:43:14;102407.19;;;9.00;55.37
32735;BME280;19112;51.076;3.706;2023-01-29T14:45:48;102236.09;;;8.05;55.67
32735;BME280;19112;51.076;3.706;2023-01-29T14:48:44;102440.94;;;9.22;55.63
32735;BME280;19112;51.076;3.706;2023-01-29T14:51:15;102185.91;;;7.84;56.10
32735;BME280;19112;51.076;3.706;2023-01-29T14:56:39;102389.78;;;9.00;55.88
32735;BME280;19112;51.076;3.706;2023-01-29T14:59:15;102440.00;;;9.21;55.94
32735;BME280;19112;51.076;3.706;2023-01-29T15:01:57;102382.22;;;8.91;55.92
32735;BME280;19112;51.076;3.706;2023-01-29T15:04:26;102404.16;;;9.07;55.90